Ukiivik

KL  EN  DA
ASIAQ
Weather Now GREENLAND SURVEY
Updated [WGT/WGST] Temperature [°C] Wind [m/s] Air pressure [hPa] Relative humidity [%] Precipitation [mm]
Present Wind chill Speed Max
30.11 17:00-2,1-11,616,5 ⇘19,699269n/a
30.11 16:00-2,0-11,416,0 ⇘18,599265n/a
30.11 15:00-1,9-11,014,9 ⇘17,599164n/a
30.11 14:00-1,7-10,413,9 ⇘16,099155n/a
30.11 13:00-1,7-10,012,4 ⇘13,999254n/a
30.11 12:00-1,6-10,012,9 ⇘14,499262n/a
30.11 11:00-1,6-10,213,4 ⇘15,499359n/a
30.11 10:00-1,5-9,812,4 ⇘14,499458n/a
30.11 09:00-1,4-9,812,9 ⇘14,499552n/a
30.11 08:00-1,5-9,812,4 ⇘14,499561n/a
30.11 07:00-1,5-10,013,4 ⇘15,499658n/a
30.11 06:00-1,3-10,114,9 ⇘17,099764n/a
30.11 05:00-1,2-8,910,8 ⇘12,999858n/a
30.11 04:00-1,7-8,98,8 ⇓10,3100057n/a
30.11 03:00-1,7-7,45,7 ⇓7,7100162n/a
30.11 02:00-2,1-7,34,6 ⇓6,2100369n/a
30.11 01:00-2,1-7,34,6 ⇙6,2100468n/a
30.11 00:00-2,4-6,02,6 ⇙3,6100565n/a
29.11 23:00-2,1-7,34,6 ⇐5,7100758n/a
29.11 22:00-2,1-8,26,2 ⇐8,8100858n/a
29.11 21:00-2,1-6,94,1 ⇐5,1100963n/a
29.11 20:00-1,3-6,34,6 ⇑5,7100966n/a
29.11 19:00-1,3-7,77,2 ⇑9,8100969n/a
29.11 18:00-0,7-6,97,2 ⇖8,8100964n/a
29.11 17:00-1,1-7,26,7 ⇖7,7101064n/a
Position: (62.57888889,-50.40583333)

[Back]